Terminal Aerodrome Forecast
Issued by NWS

Home | Current Version | Previous Version | Text Only | Print | Product List | Glossary On
Versions: 1 2 3 4 5 6 7 8 9 10 11 12 13 14 15
000
FTUS45 KSLC 251917 AAA
TAFSGU
TAF AMD
KSGU 251917Z 2519/2618 24011KT P6SM SCT120
     FM252030 24016G26KT P6SM SCT120
     FM260200 19011KT P6SM FEW150=

USA.gov is the U.S. government's official web portal to all federal, state and local government web resources and services.